48.8°F
Current conditions from King Hill
Updated every 5 minutes
 
  Thursday April 24, 2014

Station Historical Data
Daily Summary for March 10, 2011 Units:  Metric    English   Both
« Previous Day
Next Day »
Daily Weekly Monthly Yearly Custom
  High: Low: Average:
Temperature: 4.5 °C -2.1 °C 1.7 °C
Dew Point: 0.7 °C -5.9 °C -1.8 °C
Humidity: 84% 69% 78%
Wind Speed: 22.5km/h 1.6km/h 11.3km/h
Wind Gust: 53.1km/h - -
Wind- - South
Pressure: 1028.3 hPa 1014.8 hPa -
Precipitation: 0 mm    
Historical Graphs
 
 
Tabular Data for March 10, 2011
Time Temperature Dew Point Pressure Wind Wind Speed Wind Gust Humidity Daily Rainfall
00:04 -1.3 °C -5.9 °C 1028.3 hPa South 14.5 km/h 30.6 km/h 71% 0 mm
00:09 -1.3 °C -5.9 °C 1028.3 hPa South 14.5 km/h 29 km/h 71% 0 mm
00:14 -1.3 °C -5.8 °C 1028 hPa South 12.9 km/h 29 km/h 71% 0 mm
00:19 -1.2 °C -5.8 °C 1028 hPa South 11.3 km/h 27.4 km/h 71% 0 mm
00:24 -1.1 °C -5.8 °C 1028 hPa South 16.1 km/h 32.2 km/h 70% 0 mm
00:30 -1 °C -5.9 °C 1027.7 hPa South 8 km/h 32.2 km/h 69% 0 mm
00:39 -0.9 °C -5.9 °C 1028 hPa South 14.5 km/h 27.4 km/h 69% 0 mm
00:44 -0.9 °C -5.7 °C 1028 hPa South 12.9 km/h 30.6 km/h 70% 0 mm
00:49 -0.9 °C -5.7 °C 1028 hPa South 14.5 km/h 32.2 km/h 70% 0 mm
00:54 -0.9 °C -5.7 °C 1028 hPa South 16.1 km/h 32.2 km/h 70% 0 mm
00:59 -0.9 °C -5.7 °C 1028 hPa South 11.3 km/h 35.4 km/h 70% 0 mm
01:04 -1 °C -5.8 °C 1028 hPa South 12.9 km/h 38.6 km/h 70% 0 mm
01:09 -1.1 °C -5.3 °C 1027.7 hPa South 12.9 km/h 38.6 km/h 73% 0 mm
01:14 -1.4 °C -5.1 °C 1028 hPa South 8 km/h 37 km/h 76% 0 mm
01:19 -1.7 °C -4.9 °C 1028 hPa South 14.5 km/h 33.8 km/h 79% 0 mm
01:24 -1.9 °C -4.8 °C 1028 hPa South 12.9 km/h 33.8 km/h 81% 0 mm
01:29 -2.1 °C -4.7 °C 1027.7 hPa South 16.1 km/h 29 km/h 82% 0 mm
01:34 -2.1 °C -4.7 °C 1027.7 hPa South 11.3 km/h 33.8 km/h 82% 0 mm
01:39 -2 °C -4.8 °C 1027.7 hPa South 14.5 km/h 35.4 km/h 81% 0 mm
01:44 -1.8 °C -4.9 °C 1027.7 hPa South 12.9 km/h 35.4 km/h 79% 0 mm
01:49 -1.6 °C -5.1 °C 1027.7 hPa South 17.7 km/h 41.8 km/h 77% 0 mm
01:54 -1.4 °C -4.9 °C 1027.7 hPa South 17.7 km/h 41.8 km/h 77% 0 mm
01:59 -1.5 °C -5 °C 1027.3 hPa South 22.5 km/h 41.8 km/h 77% 0 mm
02:04 -1.7 °C -5 °C 1027.3 hPa South 17.7 km/h 41.8 km/h 78% 0 mm
02:09 -1.8 °C -4.9 °C 1027 hPa South 22.5 km/h 53.1 km/h 79% 0 mm
02:14 -1.8 °C -4.9 °C 1027 hPa South 17.7 km/h 53.1 km/h 79% 0 mm
02:24 -1.8 °C -4.9 °C 1026.6 hPa South 16.1 km/h 32.2 km/h 79% 0 mm
02:34 -1.7 °C -5 °C 1026.6 hPa South 17.7 km/h 35.4 km/h 78% 0 mm
02:39 -1.6 °C -4.9 °C 1026.3 hPa South 14.5 km/h 35.4 km/h 78% 0 mm
02:54 -1.3 °C -5 °C 1026.3 hPa South 12.9 km/h 32.2 km/h 76% 0 mm
03:04 -1.1 °C -5.2 °C 1026 hPa South 12.9 km/h 30.6 km/h 74% 0 mm
03:09 -1.1 °C -5.3 °C 1026 hPa South 12.9 km/h 30.6 km/h 73% 0 mm
03:29 -0.9 °C -5.1 °C 1025.6 hPa South 17.7 km/h 35.4 km/h 73% 0 mm
03:44 -0.8 °C -4.9 °C 1025.6 hPa South 16.1 km/h 30.6 km/h 74% 0 mm
03:49 -0.9 °C -4.8 °C 1025.6 hPa SSW 11.3 km/h 30.6 km/h 75% 0 mm
03:59 -0.9 °C -4.8 °C 1025.6 hPa South 16.1 km/h 38.6 km/h 75% 0 mm
04:04 -0.9 °C -4.8 °C 1025.6 hPa South 14.5 km/h 33.8 km/h 75% 0 mm
04:09 -0.9 °C -4.7 °C 1025.6 hPa South 9.7 km/h 33.8 km/h 76% 0 mm
04:14 -0.9 °C -4.6 °C 1025.6 hPa South 14.5 km/h 37 km/h 76% 0 mm
04:24 -0.8 °C -4.7 °C 1025.3 hPa South 12.9 km/h 40.2 km/h 75% 0 mm
04:29 -0.7 °C -4.6 °C 1025.3 hPa SSW 14.5 km/h 40.2 km/h 75% 0 mm
04:39 -0.7 °C -4.4 °C 1025.3 hPa South 12.9 km/h 35.4 km/h 76% 0 mm
04:44 -0.7 °C -4.4 °C 1025.3 hPa South 12.9 km/h 35.4 km/h 76% 0 mm
04:49 -0.8 °C -4.2 °C 1025.3 hPa South 12.9 km/h 37 km/h 78% 0 mm
05:09 -0.9 °C -3.9 °C 1024.9 hPa South 11.3 km/h 30.6 km/h 80% 0 mm
05:19 -0.9 °C -3.8 °C 1025.3 hPa South 14.5 km/h 30.6 km/h 81% 0 mm
05:24 -0.9 °C -3.7 °C 1024.9 hPa South 20.9 km/h 40.2 km/h 81% 0 mm
05:30 -0.9 °C -3.7 °C 1024.9 hPa South 9.7 km/h 40.2 km/h 81% 0 mm
05:34 -0.8 °C -3.7 °C 1024.9 hPa South 12.9 km/h 27.4 km/h 81% 0 mm
05:49 -0.7 °C -3.6 °C 1024.9 hPa SSW 16.1 km/h 38.6 km/h 81% 0 mm
05:59 -0.8 °C -3.4 °C 1024.9 hPa South 9.7 km/h 24.1 km/h 82% 0 mm
06:14 -0.7 °C -3.4 °C 1024.9 hPa South 12.9 km/h 30.6 km/h 82% 0 mm
06:19 -0.7 °C -3.3 °C 1024.9 hPa South 12.9 km/h 27.4 km/h 82% 0 mm
06:24 -0.7 °C -3.3 °C 1024.9 hPa South 14.5 km/h 27.4 km/h 82% 0 mm
06:34 -0.6 °C -3.2 °C 1024.9 hPa South 9.7 km/h 17.7 km/h 82% 0 mm
06:39 -0.6 °C -3.1 °C 1024.9 hPa SSW 12.9 km/h 27.4 km/h 83% 0 mm
06:44 -0.5 °C -3.1 °C 1024.9 hPa SSW 11.3 km/h 27.4 km/h 83% 0 mm
06:49 -0.5 °C -3.1 °C 1024.9 hPa South 11.3 km/h 30.6 km/h 83% 0 mm
06:54 -0.5 °C -3.1 °C 1025.3 hPa SSW 9.7 km/h 30.6 km/h 83% 0 mm
06:59 -0.5 °C -3.1 °C 1025.3 hPa SSW 9.7 km/h 22.5 km/h 83% 0 mm
07:04 -0.5 °C -3.1 °C 1025.3 hPa SSW 6.4 km/h 22.5 km/h 83% 0 mm
07:09 -0.5 °C -3.1 °C 1025.3 hPa SSW 8 km/h 20.9 km/h 83% 0 mm
07:14 -0.5 °C -3.1 °C 1024.9 hPa SSW 9.7 km/h 27.4 km/h 83% 0 mm
07:19 -0.4 °C -3 °C 1025.3 hPa SSW 9.7 km/h 27.4 km/h 83% 0 mm
07:24 -0.4 °C -2.8 °C 1024.9 hPa South 9.7 km/h 24.1 km/h 84% 0 mm
07:29 -0.4 °C -2.8 °C 1025.3 hPa South 11.3 km/h 24.1 km/h 84% 0 mm
07:34 -0.4 °C -2.8 °C 1025.3 hPa South 11.3 km/h 24.1 km/h 84% 0 mm
07:39 -0.3 °C -2.8 °C 1025.3 hPa South 12.9 km/h 27.4 km/h 83% 0 mm
07:44 -0.2 °C -2.7 °C 1024.9 hPa South 11.3 km/h 27.4 km/h 83% 0 mm
07:49 -0.1 °C -2.8 °C 1024.9 hPa South 9.7 km/h 25.7 km/h 82% 0 mm
07:54 0 °C -2.9 °C 1024.9 hPa SSW 12.9 km/h 32.2 km/h 81% 0 mm
07:59 0.1 °C -2.8 °C 1024.9 hPa South 11.3 km/h 32.2 km/h 81% 0 mm
08:04 0.1 °C -2.8 °C 1024.9 hPa South 14.5 km/h 37 km/h 81% 0 mm
08:09 0.2 °C -2.7 °C 1024.9 hPa South 11.3 km/h 37 km/h 81% 0 mm
08:14 0.2 °C -2.7 °C 1024.9 hPa SSW 9.7 km/h 27.4 km/h 81% 0 mm
08:19 0.3 °C -2.6 °C 1024.9 hPa South 12.9 km/h 30.6 km/h 81% 0 mm
08:24 0.3 °C -2.7 °C 1024.9 hPa South 17.7 km/h 30.6 km/h 80% 0 mm
08:29 0.4 °C -2.7 °C 1024.9 hPa South 12.9 km/h 27.4 km/h 80% 0 mm
08:35 0.4 °C -2.6 °C 1024.9 hPa SSW 9.7 km/h 27.4 km/h 80% 0 mm
08:44 0.7 °C -2.6 °C 1024.9 hPa South 9.7 km/h 25.7 km/h 79% 0 mm
08:49 0.7 °C -2.6 °C 1024.6 hPa South 14.5 km/h 24.1 km/h 79% 0 mm
08:54 0.7 °C -2.6 °C 1024.6 hPa South 14.5 km/h 29 km/h 79% 0 mm
08:59 0.7 °C -2.5 °C 1024.6 hPa South 12.9 km/h 30.6 km/h 79% 0 mm
09:04 0.8 °C -2.4 °C 1024.6 hPa South 12.9 km/h 30.6 km/h 79% 0 mm
09:09 0.8 °C -2.4 °C 1024.6 hPa South 9.7 km/h 29 km/h 79% 0 mm
09:14 0.8 °C -2.4 °C 1024.6 hPa South 11.3 km/h 22.5 km/h 79% 0 mm
09:19 0.9 °C -2.4 °C 1024.6 hPa South 14.5 km/h 32.2 km/h 78% 0 mm
09:24 1 °C -2.4 °C 1024.6 hPa South 8 km/h 32.2 km/h 78% 0 mm
09:29 1.1 °C -2.3 °C 1024.3 hPa South 8 km/h 30.6 km/h 78% 0 mm
09:34 1.2 °C -2.4 °C 1024.3 hPa South 12.9 km/h 24.1 km/h 77% 0 mm
09:39 1.2 °C -2.4 °C 1024.3 hPa South 16.1 km/h 33.8 km/h 77% 0 mm
09:44 1.2 °C -2.4 °C 1024.3 hPa SSW 16.1 km/h 33.8 km/h 77% 0 mm
09:49 1.2 °C -2.4 °C 1024.3 hPa South 11.3 km/h 32.2 km/h 77% 0 mm
09:54 1.3 °C -2.1 °C 1024.3 hPa SSW 14.5 km/h 29 km/h 78% 0 mm
09:59 1.3 °C -2.1 °C 1024.3 hPa South 8 km/h 30.6 km/h 78% 0 mm
10:04 1.3 °C -2.1 °C 1024.3 hPa South 19.3 km/h 32.2 km/h 78% 0 mm
10:09 1.3 °C -2.1 °C 1024.3 hPa South 14.5 km/h 32.2 km/h 78% 0 mm
10:14 1.3 °C -2.1 °C 1024.3 hPa South 9.7 km/h 25.7 km/h 78% 0 mm
10:19 1.3 °C -2.1 °C 1023.9 hPa South 9.7 km/h 24.1 km/h 78% 0 mm
10:24 1.4 °C -1.9 °C 1024.3 hPa South 14.5 km/h 25.7 km/h 78% 0 mm
10:29 1.4 °C -1.9 °C 1024.3 hPa South 11.3 km/h 30.6 km/h 78% 0 mm
10:35 1.6 °C -1.9 °C 1023.9 hPa South 12.9 km/h 33.8 km/h 78% 0 mm
10:39 1.6 °C -1.9 °C 1024.3 hPa South 16.1 km/h 37 km/h 78% 0 mm
10:44 1.6 °C -1.8 °C 1024.3 hPa South 12.9 km/h 41.8 km/h 78% 0 mm
10:49 1.6 °C -1.8 °C 1023.9 hPa South 12.9 km/h 41.8 km/h 78% 0 mm
10:54 1.7 °C -1.8 °C 1023.9 hPa South 12.9 km/h 32.2 km/h 78% 0 mm
10:59 1.8 °C -1.7 °C 1023.9 hPa South 12.9 km/h 25.7 km/h 78% 0 mm
11:04 1.9 °C -1.6 °C 1023.9 hPa South 11.3 km/h 27.4 km/h 78% 0 mm
11:09 1.9 °C -1.7 °C 1023.9 hPa South 12.9 km/h 27.4 km/h 77% 0 mm
11:14 2.1 °C -1.7 °C 1023.9 hPa South 12.9 km/h 35.4 km/h 76% 0 mm
11:19 2.2 °C -1.6 °C 1023.9 hPa South 11.3 km/h 35.4 km/h 76% 0 mm
11:24 2.3 °C -1.7 °C 1023.9 hPa SSE 14.5 km/h 32.2 km/h 75% 0 mm
11:30 2.2 °C -1.6 °C 1023.9 hPa South 12.9 km/h 32.2 km/h 76% 0 mm
11:39 2.2 °C -1.4 °C 1023.6 hPa SSW 12.9 km/h 27.4 km/h 77% 0 mm
11:44 2.3 °C -1.4 °C 1023.6 hPa South 11.3 km/h 24.1 km/h 76% 0 mm
11:49 2.5 °C -1.3 °C 1023.2 hPa South 14.5 km/h 27.4 km/h 76% 0 mm
11:54 2.6 °C -1.4 °C 1023.2 hPa South 8 km/h 32.2 km/h 75% 0 mm
11:59 2.7 °C -1.3 °C 1023.2 hPa South 11.3 km/h 32.2 km/h 75% 0 mm
12:04 2.8 °C -1.4 °C 1023.2 hPa South 16.1 km/h 29 km/h 74% 0 mm
12:09 2.8 °C -1.4 °C 1023.2 hPa SSW 11.3 km/h 29 km/h 74% 0 mm
12:14 2.8 °C -1.3 °C 1023.2 hPa South 12.9 km/h 27.4 km/h 74% 0 mm
12:19 2.8 °C -1.4 °C 1023.2 hPa South 14.5 km/h 24.1 km/h 74% 0 mm
12:24 2.8 °C -1.3 °C 1022.9 hPa South 9.7 km/h 24.1 km/h 74% 0 mm
12:29 2.8 °C -1.3 °C 1022.9 hPa South 11.3 km/h 27.4 km/h 74% 0 mm
12:34 2.8 °C -1.3 °C 1022.9 hPa South 12.9 km/h 27.4 km/h 74% 0 mm
12:39 2.8 °C -1.3 °C 1022.9 hPa SSW 11.3 km/h 25.7 km/h 74% 0 mm
12:44 2.9 °C -1.3 °C 1022.9 hPa South 12.9 km/h 32.2 km/h 74% 0 mm
12:49 2.9 °C -1.3 °C 1022.6 hPa South 12.9 km/h 32.2 km/h 74% 0 mm
12:54 2.8 °C -1.2 °C 1022.6 hPa SSW 12.9 km/h 35.4 km/h 75% 0 mm
12:59 2.9 °C -1.1 °C 1022.6 hPa South 9.7 km/h 35.4 km/h 75% 0 mm
13:04 2.9 °C -1.3 °C 1022.6 hPa South 16.1 km/h 37 km/h 74% 0 mm
13:09 2.9 °C -1.1 °C 1022.6 hPa SSW 9.7 km/h 37 km/h 75% 0 mm
13:14 3 °C -1.2 °C 1022.6 hPa South 12.9 km/h 29 km/h 74% 0 mm
13:19 3.1 °C -1.1 °C 1022.6 hPa South 12.9 km/h 29 km/h 74% 0 mm
13:24 3.1 °C -1.1 °C 1022.6 hPa South 11.3 km/h 32.2 km/h 74% 0 mm
13:29 3.2 °C -1.2 °C 1022.2 hPa South 8 km/h 32.2 km/h 73% 0 mm
13:34 3.2 °C -1.2 °C 1022.2 hPa South 11.3 km/h 30.6 km/h 73% 0 mm
13:39 3.1 °C -1.3 °C 1022.2 hPa SSW 11.3 km/h 29 km/h 73% 0 mm
13:44 3.1 °C -1.1 °C 1022.2 hPa South 19.3 km/h 29 km/h 74% 0 mm
13:49 3.1 °C -1.1 °C 1022.2 hPa SSW 11.3 km/h 29 km/h 74% 0 mm
13:54 3 °C -1 °C 1021.9 hPa South 11.3 km/h 27.4 km/h 75% 0 mm
13:59 2.9 °C -0.9 °C 1021.9 hPa South 16.1 km/h 29 km/h 76% 0 mm
14:04 3 °C -0.8 °C 1021.9 hPa South 9.7 km/h 30.6 km/h 76% 0 mm
14:09 3 °C -0.8 °C 1021.6 hPa South 11.3 km/h 30.6 km/h 76% 0 mm
14:14 3.1 °C -0.8 °C 1021.6 hPa South 11.3 km/h 27.4 km/h 76% 0 mm
14:19 3.1 °C -0.9 °C 1021.6 hPa South 9.7 km/h 27.4 km/h 75% 0 mm
14:24 3.1 °C -0.7 °C 1021.6 hPa South 8 km/h 27.4 km/h 76% 0 mm
14:29 3.2 °C -0.7 °C 1021.6 hPa South 14.5 km/h 27.4 km/h 76% 0 mm
14:34 3.2 °C -0.7 °C 1021.2 hPa South 12.9 km/h 24.1 km/h 76% 0 mm
14:39 3.2 °C -0.7 °C 1021.2 hPa SSW 14.5 km/h 29 km/h 76% 0 mm
14:44 3.1 °C -0.6 °C 1021.6 hPa South 12.9 km/h 33.8 km/h 77% 0 mm
14:49 3.1 °C -0.6 °C 1021.2 hPa South 14.5 km/h 33.8 km/h 77% 0 mm
14:55 3 °C -0.4 °C 1021.2 hPa South 11.3 km/h 27.4 km/h 78% 0 mm
14:59 2.9 °C -0.3 °C 1021.2 hPa South 12.9 km/h 25.7 km/h 79% 0 mm
15:04 2.9 °C -0.4 °C 1021.2 hPa SSE 12.9 km/h 35.4 km/h 79% 0 mm
15:09 2.8 °C -0.4 °C 1021.2 hPa South 9.7 km/h 35.4 km/h 79% 0 mm
15:14 2.8 °C -0.4 °C 1021.2 hPa South 9.7 km/h 24.1 km/h 79% 0 mm
15:19 2.8 °C -0.3 °C 1021.2 hPa South 11.3 km/h 32.2 km/h 80% 0 mm
15:24 2.7 °C -0.4 °C 1020.9 hPa South 9.7 km/h 32.2 km/h 80% 0 mm
15:29 2.6 °C -0.5 °C 1020.9 hPa South 6.4 km/h 25.7 km/h 80% 0 mm
15:34 2.6 °C -0.4 °C 1020.9 hPa South 14.5 km/h 25.7 km/h 81% 0 mm
15:39 2.4 °C -0.5 °C 1020.5 hPa SSE 9.7 km/h 25.7 km/h 81% 0 mm
15:44 2.4 °C -0.4 °C 1020.5 hPa South 9.7 km/h 20.9 km/h 82% 0 mm
15:49 2.3 °C -0.4 °C 1020.5 hPa South 8 km/h 20.9 km/h 82% 0 mm
15:54 2.3 °C -0.3 °C 1020.5 hPa SSE 6.4 km/h 17.7 km/h 83% 0 mm
15:59 2.3 °C -0.3 °C 1020.5 hPa South 8 km/h 16.1 km/h 83% 0 mm
16:04 2.3 °C -0.3 °C 1020.5 hPa South 9.7 km/h 16.1 km/h 83% 0 mm
16:09 2.3 °C -0.3 °C 1020.5 hPa South 8 km/h 16.1 km/h 83% 0 mm
16:14 2.4 °C -0.2 °C 1020.5 hPa South 8 km/h 19.3 km/h 83% 0 mm
16:19 2.4 °C -0.3 °C 1020.5 hPa South 12.9 km/h 25.7 km/h 82% 0 mm
16:24 2.5 °C -0.3 °C 1020.5 hPa South 11.3 km/h 25.7 km/h 82% 0 mm
16:29 2.4 °C -0.3 °C 1020.2 hPa SSW 8 km/h 22.5 km/h 82% 0 mm
16:34 2.4 °C -0.5 °C 1020.2 hPa South 11.3 km/h 25.7 km/h 81% 0 mm
16:39 2.5 °C -0.4 °C 1020.2 hPa South 12.9 km/h 29 km/h 81% 0 mm
16:44 2.5 °C -0.4 °C 1020.2 hPa South 4.8 km/h 29 km/h 81% 0 mm
16:49 2.4 °C -0.3 °C 1019.9 hPa South 6.4 km/h 24.1 km/h 82% 0 mm
16:54 2.4 °C -0.4 °C 1019.9 hPa South 8 km/h 19.3 km/h 82% 0 mm
16:59 2.3 °C -0.4 °C 1019.9 hPa South 9.7 km/h 20.9 km/h 82% 0 mm
17:04 2.3 °C -0.3 °C 1019.5 hPa South 8 km/h 20.9 km/h 83% 0 mm
17:09 2.2 °C -0.4 °C 1019.5 hPa Calm   22.5 km/h 83% 0 mm
17:14 2.2 °C -0.3 °C 1019.5 hPa SSE 3.2 km/h 22.5 km/h 84% 0 mm
17:19 2.2 °C -0.3 °C 1019.5 hPa South 4.8 km/h 12.9 km/h 84% 0 mm
17:24 2.1 °C -0.3 °C 1019.5 hPa South 1.6 km/h 12.9 km/h 84% 0 mm
17:34 2.2 °C -0.3 °C 1019.5 hPa South 6.4 km/h 12.9 km/h 84% 0 mm
17:39 2.3 °C -0.2 °C 1019.2 hPa South 4.8 km/h 12.9 km/h 84% 0 mm
17:44 2.3 °C -0.3 °C 1019.2 hPa South 4.8 km/h 16.1 km/h 83% 0 mm
17:49 2.4 °C -0.2 °C 1019.2 hPa South 6.4 km/h 16.1 km/h 83% 0 mm
17:59 2.6 °C -0.4 °C 1019.2 hPa South 6.4 km/h 16.1 km/h 81% 0 mm
18:04 2.7 °C -0.3 °C 1018.8 hPa SSE 9.7 km/h 19.3 km/h 81% 0 mm
18:09 2.7 °C -0.4 °C 1018.8 hPa South 8 km/h 19.3 km/h 80% 0 mm
18:14 2.7 °C -0.4 °C 1018.8 hPa SSE 4.8 km/h 17.7 km/h 80% 0 mm
18:19 2.7 °C -0.4 °C 1018.8 hPa South 4.8 km/h 17.7 km/h 80% 0 mm
18:24 2.7 °C -0.4 °C 1018.8 hPa SSE 1.6 km/h 14.5 km/h 80% 0 mm
18:29 2.8 °C -0.3 °C 1018.8 hPa South 4.8 km/h 17.7 km/h 80% 0 mm
18:35 2.9 °C -0.3 °C 1018.5 hPa SSE 8 km/h 20.9 km/h 79% 0 mm
18:39 3.1 °C -0.2 °C 1018.5 hPa South 6.4 km/h 20.9 km/h 79% 0 mm
18:44 3.1 °C -0.2 °C 1018.5 hPa South 6.4 km/h 17.7 km/h 79% 0 mm
18:49 3.1 °C -0.3 °C 1018.5 hPa SSE 8 km/h 14.5 km/h 78% 0 mm
18:55 3.1 °C -0.3 °C 1018.5 hPa South 8 km/h 14.5 km/h 78% 0 mm
18:59 3.2 °C -0.3 °C 1018.5 hPa SSE 6.4 km/h 16.1 km/h 78% 0 mm
19:04 3.2 °C -0.3 °C 1018.5 hPa South 4.8 km/h 17.7 km/h 78% 0 mm
19:09 3.3 °C -0.4 °C 1018.5 hPa South 6.4 km/h 17.7 km/h 77% 0 mm
19:14 3.3 °C -0.4 °C 1018.5 hPa South 8 km/h 16.1 km/h 77% 0 mm
19:19 3.4 °C -0.2 °C 1018.2 hPa South 8 km/h 16.1 km/h 77% 0 mm
19:24 3.5 °C -0.2 °C 1018.2 hPa South 6.4 km/h 16.1 km/h 77% 0 mm
19:29 3.6 °C -0.3 °C 1018.5 hPa South 8 km/h 14.5 km/h 76% 0 mm
19:34 3.6 °C -0.1 °C 1018.5 hPa South 8 km/h 14.5 km/h 77% 0 mm
19:39 3.7 °C -0.2 °C 1018.5 hPa South 6.4 km/h 25.7 km/h 76% 0 mm
19:44 3.7 °C -0.1 °C 1018.2 hPa South 8 km/h 25.7 km/h 76% 0 mm
19:49 4 °C -0.1 °C 1018.5 hPa South 16.1 km/h 27.4 km/h 75% 0 mm
19:55 4.1 °C 0.1 °C 1018.2 hPa South 16.1 km/h 30.6 km/h 75% 0 mm
20:04 4.2 °C -0.1 °C 1018.2 hPa South 11.3 km/h 30.6 km/h 74% 0 mm
20:09 4.1 °C -0.1 °C 1018.5 hPa South 9.7 km/h 30.6 km/h 74% 0 mm
20:14 4.1 °C 0.1 °C 1018.5 hPa South 12.9 km/h 30.6 km/h 75% 0 mm
20:19 4.1 °C 0.1 °C 1018.2 hPa South 19.3 km/h 30.6 km/h 75% 0 mm
20:24 4.1 °C 0 °C 1018.2 hPa South 11.3 km/h 37 km/h 75% 0 mm
20:30 4.1 °C 0 °C 1018.2 hPa South 11.3 km/h 37 km/h 75% 0 mm
20:39 4 °C -0.1 °C 1017.8 hPa South 8 km/h 33.8 km/h 75% 0 mm
20:44 4 °C 0.2 °C 1017.8 hPa South 11.3 km/h 29 km/h 76% 0 mm
20:49 4.1 °C 0.2 °C 1017.8 hPa South 16.1 km/h 27.4 km/h 76% 0 mm
20:54 4.1 °C 0.2 °C 1017.8 hPa South 12.9 km/h 27.4 km/h 76% 0 mm
20:59 4.2 °C 0.3 °C 1017.8 hPa South 8 km/h 33.8 km/h 76% 0 mm
21:04 4.2 °C 0.1 °C 1017.8 hPa South 11.3 km/h 33.8 km/h 75% 0 mm
21:09 4.2 °C 0.2 °C 1017.8 hPa South 20.9 km/h 32.2 km/h 75% 0 mm
21:14 4.3 °C 0.2 °C 1017.8 hPa SSW 14.5 km/h 32.2 km/h 75% 0 mm
21:19 4.3 °C 0.2 °C 1017.5 hPa South 12.9 km/h 30.6 km/h 75% 0 mm
21:24 4.3 °C 0.2 °C 1017.5 hPa South 16.1 km/h 32.2 km/h 75% 0 mm
21:29 4.3 °C 0.3 °C 1017.5 hPa South 12.9 km/h 32.2 km/h 75% 0 mm
21:34 4.3 °C 0.3 °C 1017.2 hPa South 17.7 km/h 45.1 km/h 75% 0 mm
21:39 4.3 °C 0.2 °C 1016.8 hPa South 14.5 km/h 45.1 km/h 75% 0 mm
21:44 4.2 °C 0.3 °C 1016.8 hPa South 11.3 km/h 32.2 km/h 76% 0 mm
21:49 4.1 °C 0.2 °C 1016.8 hPa South 8 km/h 24.1 km/h 76% 0 mm
21:55 4 °C 0.3 °C 1016.8 hPa SSE 8 km/h 24.1 km/h 77% 0 mm
22:04 4 °C 0.3 °C 1016.8 hPa South 6.4 km/h 25.7 km/h 77% 0 mm
22:09 3.9 °C 0.3 °C 1016.5 hPa South 8 km/h 25.7 km/h 77% 0 mm
22:14 4 °C 0.3 °C 1016.5 hPa South 8 km/h 25.7 km/h 77% 0 mm
22:19 3.9 °C 0.3 °C 1016.5 hPa South 6.4 km/h 25.7 km/h 77% 0 mm
22:24 4 °C 0.3 °C 1016.5 hPa South 8 km/h 17.7 km/h 77% 0 mm
22:29 4.1 °C 0.4 °C 1016.5 hPa SE 8 km/h 19.3 km/h 77% 0 mm
22:34 4.1 °C 0.4 °C 1016.5 hPa SSE 6.4 km/h 20.9 km/h 77% 0 mm
22:39 4.2 °C 0.5 °C 1016.1 hPa SSE 9.7 km/h 20.9 km/h 77% 0 mm
22:44 4.2 °C 0.5 °C 1016.1 hPa SSE 4.8 km/h 19.3 km/h 77% 0 mm
22:49 4.1 °C 0.4 °C 1016.1 hPa SE 9.7 km/h 19.3 km/h 77% 0 mm
22:55 4.1 °C 0.4 °C 1016.1 hPa SSE 4.8 km/h 22.5 km/h 77% 0 mm
23:04 4.2 °C 0.6 °C 1015.8 hPa South 9.7 km/h 19.3 km/h 77% 0 mm
23:09 4.3 °C 0.6 °C 1015.8 hPa SSE 4.8 km/h 19.3 km/h 77% 0 mm
23:14 4.3 °C 0.7 °C 1015.8 hPa SSE 4.8 km/h 17.7 km/h 77% 0 mm
23:19 4.3 °C 0.6 °C 1015.8 hPa South 3.2 km/h 16.1 km/h 77% 0 mm
23:24 4.2 °C 0.7 °C 1015.5 hPa South 9.7 km/h 27.4 km/h 78% 0 mm
23:29 4.1 °C 0.6 °C 1015.5 hPa South 11.3 km/h 27.4 km/h 78% 0 mm
23:34 4.3 °C 0.7 °C 1015.1 hPa South 12.9 km/h 27.4 km/h 77% 0 mm
23:39 4.4 °C 0.6 °C 1015.1 hPa SSW 9.7 km/h 27.4 km/h 76% 0 mm
23:44 4.4 °C 0.6 °C 1015.1 hPa South 11.3 km/h 22.5 km/h 76% 0 mm
23:49 4.5 °C 0.6 °C 1014.8 hPa South 8 km/h 19.3 km/h 76% 0 mm
23:54 4.5 °C 0.6 °C 1014.8 hPa South 3.2 km/h 19.3 km/h 76% 0 mm
Westford Weather
Compliments of Weather Underground

 
 
Current Radar Loop:

Copyright © WestfordWeather.net 2007-2014. All rights reserved.